createdAt,value
2022-08-21T00:01:35.768Z,101223.03
2022-08-21T00:04:07.578Z,101225.75
2022-08-21T00:06:34.933Z,101223.13
2022-08-21T00:09:06.251Z,101215.13
2022-08-21T00:11:34.080Z,101223.03
2022-08-21T00:14:00.511Z,101224.78
2022-08-21T00:16:27.044Z,101213.41
2022-08-21T00:18:53.696Z,101210.81
2022-08-21T00:21:20.237Z,101210.75
2022-08-21T00:23:46.671Z,101204.56
2022-08-21T00:26:13.022Z,101208.91
2022-08-21T00:28:39.551Z,101199.59
2022-08-21T00:31:06.187Z,101200.00
2022-08-21T00:33:33.017Z,101202.56
2022-08-21T00:35:59.459Z,101203.75
2022-08-21T00:38:25.844Z,101202.88
2022-08-21T00:40:59.645Z,101201.38
2022-08-21T00:43:35.685Z,101192.38
2022-08-21T00:46:03.031Z,101201.91
2022-08-21T00:48:29.481Z,101201.72
2022-08-21T00:51:26.431Z,101201.66
2022-08-21T00:54:00.619Z,101201.72
2022-08-21T00:56:28.198Z,101203.75
2022-08-21T00:58:56.400Z,101199.94
2022-08-21T01:01:22.911Z,101197.47
2022-08-21T01:03:50.313Z,101196.63
2022-08-21T01:06:17.089Z,101204.94
2022-08-21T01:08:47.001Z,101205.22
2022-08-21T01:11:15.238Z,101206.34
2022-08-21T01:13:46.714Z,101203.81
2022-08-21T01:16:16.509Z,101203.94
2022-08-21T01:18:44.395Z,101202.41
2022-08-21T01:21:18.715Z,101211.66
2022-08-21T01:23:50.817Z,101209.97
2022-08-21T01:26:21.368Z,101217.06
2022-08-21T01:28:58.307Z,101209.28
2022-08-21T01:31:26.541Z,101219.69
2022-08-21T01:33:53.633Z,101220.72
2022-08-21T01:36:20.207Z,101219.09
2022-08-21T01:38:48.074Z,101214.78
2022-08-21T01:41:15.432Z,101208.13
2022-08-21T01:43:43.441Z,101207.56
2022-08-21T01:46:11.129Z,101202.91
2022-08-21T01:48:37.970Z,101206.50
2022-08-21T01:51:05.539Z,101199.50
2022-08-21T01:53:33.213Z,101204.69
2022-08-21T01:56:00.203Z,101204.72
2022-08-21T01:58:26.626Z,101203.09
2022-08-21T02:00:53.117Z,101211.09
2022-08-21T02:03:26.412Z,101200.81
2022-08-21T02:06:03.757Z,101198.09
2022-08-21T02:08:30.435Z,101203.44
2022-08-21T02:10:56.807Z,101201.78
2022-08-21T02:13:23.174Z,101204.56
2022-08-21T02:15:49.610Z,101210.75
2022-08-21T02:18:16.243Z,101214.97
2022-08-21T02:20:47.313Z,101215.81
2022-08-21T02:23:14.893Z,101208.84
2022-08-21T02:25:42.008Z,101217.50
2022-08-21T02:28:13.026Z,101205.22
2022-08-21T02:30:46.026Z,101211.41
2022-08-21T02:33:13.150Z,101211.47
2022-08-21T02:35:42.939Z,101214.94
2022-08-21T02:38:12.767Z,101211.53
2022-08-21T02:40:48.040Z,101214.22
2022-08-21T02:43:16.188Z,101208.03
2022-08-21T02:45:44.215Z,101206.34
2022-08-21T02:48:14.237Z,101200.16
2022-08-21T02:50:44.282Z,101195.72
2022-08-21T02:53:15.494Z,101200.81
2022-08-21T02:55:42.048Z,101199.19
2022-08-21T02:58:09.024Z,101197.41
2022-08-21T03:00:37.360Z,101193.91
2022-08-21T03:03:04.763Z,101190.50
2022-08-21T03:05:32.515Z,101185.22
2022-08-21T03:08:01.014Z,101174.81
2022-08-21T03:10:28.956Z,101176.56
2022-08-21T03:12:55.492Z,101183.69
2022-08-21T03:15:24.621Z,101180.34
2022-08-21T03:17:52.505Z,101180.34
2022-08-21T03:20:22.905Z,101183.84
2022-08-21T03:22:52.999Z,101184.69
2022-08-21T03:25:21.416Z,101186.34
2022-08-21T03:27:59.226Z,101183.03
2022-08-21T03:30:26.407Z,101186.75
2022-08-21T03:32:53.656Z,101189.31
2022-08-21T03:35:22.151Z,101184.78
2022-08-21T03:37:48.487Z,101182.13
2022-08-21T03:40:17.097Z,101188.31
2022-08-21T03:42:43.586Z,101177.97
2022-08-21T03:45:10.883Z,101182.25
2022-08-21T03:47:37.243Z,101178.72
2022-08-21T03:50:06.221Z,101177.91
2022-08-21T03:52:32.580Z,101184.03
2022-08-21T03:54:58.991Z,101186.66
2022-08-21T03:57:25.408Z,101188.50
2022-08-21T03:59:51.767Z,101189.50
2022-08-21T04:02:21.653Z,101180.94
2022-08-21T04:04:48.025Z,101190.41
2022-08-21T04:07:14.430Z,101186.28
2022-08-21T04:09:40.802Z,101185.63
2022-08-21T04:12:07.855Z,101198.69
2022-08-21T04:14:34.264Z,101199.56
2022-08-21T04:17:00.652Z,101189.81
2022-08-21T04:19:27.455Z,101195.06
2022-08-21T04:21:53.822Z,101188.00
2022-08-21T04:24:20.466Z,101189.75
2022-08-21T04:26:46.830Z,101187.09
2022-08-21T04:29:13.297Z,101194.94
2022-08-21T04:31:39.652Z,101188.91
2022-08-21T04:34:06.712Z,101194.06
2022-08-21T04:36:34.321Z,101190.47
2022-08-21T04:39:00.817Z,101194.03
2022-08-21T04:41:29.976Z,101198.25
2022-08-21T04:43:56.717Z,101198.16
2022-08-21T04:46:23.750Z,101198.31
2022-08-21T04:48:50.590Z,101200.91
2022-08-21T04:51:26.555Z,101201.88
2022-08-21T04:54:04.271Z,101207.03
2022-08-21T04:56:37.867Z,101205.91
2022-08-21T04:59:12.133Z,101204.09
2022-08-21T05:01:40.774Z,101211.88
2022-08-21T05:04:10.835Z,101207.66
2022-08-21T05:06:40.385Z,101215.28
2022-08-21T05:09:07.138Z,101216.06
2022-08-21T05:11:34.241Z,101218.41
2022-08-21T05:14:00.613Z,101219.13
2022-08-21T05:16:36.393Z,101212.19
2022-08-21T05:19:08.388Z,101207.81
2022-08-21T05:21:36.056Z,101213.00
2022-08-21T05:24:03.068Z,101219.91
2022-08-21T05:26:29.413Z,101217.25
2022-08-21T05:28:55.912Z,101224.97
2022-08-21T05:31:24.112Z,101211.03
2022-08-21T05:33:50.639Z,101221.50
2022-08-21T05:36:19.239Z,101219.47
2022-08-21T05:38:45.804Z,101225.38
2022-08-21T05:41:12.320Z,101227.69
2022-08-21T05:43:38.715Z,101227.34
2022-08-21T05:46:07.040Z,101218.34
2022-08-21T05:48:34.407Z,101216.28
2022-08-21T05:51:13.143Z,101223.66
2022-08-21T05:53:42.954Z,101209.44
2022-08-21T05:56:10.814Z,101208.13
2022-08-21T05:58:37.376Z,101215.53
2022-08-21T06:01:04.675Z,101210.16
2022-08-21T06:03:34.858Z,101209.44
2022-08-21T06:06:02.328Z,101214.63
2022-08-21T06:08:29.724Z,101217.78
2022-08-21T06:10:58.344Z,101217.84
2022-08-21T06:13:24.803Z,101221.56
2022-08-21T06:16:01.983Z,101215.28
2022-08-21T06:18:28.558Z,101220.00
2022-08-21T06:20:54.913Z,101214.66
2022-08-21T06:23:21.300Z,101210.91
2022-08-21T06:25:59.401Z,101211.28
2022-08-21T06:28:26.048Z,101212.53
2022-08-21T06:30:52.407Z,101207.53
2022-08-21T06:33:18.928Z,101199.41
2022-08-21T06:35:45.364Z,101200.41
2022-08-21T06:38:11.710Z,101198.56
2022-08-21T06:40:47.063Z,101198.31
2022-08-21T06:43:17.539Z,101192.19
2022-08-21T06:45:44.846Z,101193.91
2022-08-21T06:48:14.542Z,101197.66
2022-08-21T06:50:43.471Z,101192.06
2022-08-21T06:53:13.702Z,101198.91
2022-08-21T06:55:42.965Z,101195.88
2022-08-21T06:58:10.142Z,101196.16
2022-08-21T07:00:40.724Z,101197.66
2022-08-21T07:03:07.475Z,101200.31
2022-08-21T07:05:33.990Z,101187.91
2022-08-21T07:08:00.440Z,101185.59
2022-08-21T07:10:27.494Z,101182.72
2022-08-21T07:13:01.008Z,101182.41
2022-08-21T07:15:30.345Z,101178.66
2022-08-21T07:17:58.086Z,101180.47
2022-08-21T07:20:24.632Z,101179.75
2022-08-21T07:22:51.735Z,101173.94
2022-08-21T07:25:18.158Z,101175.03
2022-08-21T07:27:44.532Z,101173.94
2022-08-21T07:30:11.235Z,101165.56
2022-08-21T07:32:37.570Z,101168.19
2022-08-21T07:35:04.746Z,101165.66
2022-08-21T07:37:31.124Z,101163.34
2022-08-21T07:39:57.568Z,101165.81
2022-08-21T07:42:24.277Z,101159.41
2022-08-21T07:44:51.848Z,101157.84
2022-08-21T07:47:41.476Z,101153.78
2022-08-21T07:50:08.636Z,101152.19
2022-08-21T07:52:35.407Z,101152.84
2022-08-21T07:55:06.007Z,101146.38
2022-08-21T07:57:33.291Z,101150.09
2022-08-21T07:59:59.886Z,101153.28
2022-08-21T08:02:29.180Z,101151.03
2022-08-21T08:05:00.097Z,101143.91
2022-08-21T08:07:27.062Z,101147.91
2022-08-21T08:09:53.487Z,101145.22
2022-08-21T08:12:20.946Z,101142.50
2022-08-21T08:14:47.634Z,101137.34
2022-08-21T08:17:16.939Z,101149.81
2022-08-21T08:19:43.278Z,101139.63
2022-08-21T08:22:22.059Z,101139.31
2022-08-21T08:24:49.288Z,101141.50
2022-08-21T08:27:17.086Z,101138.06
2022-08-21T08:29:44.330Z,101136.44
2022-08-21T08:32:10.741Z,101133.41
2022-08-21T08:34:37.971Z,101130.78
2022-08-21T08:37:05.426Z,101140.03
2022-08-21T08:39:33.979Z,101137.84
2022-08-21T08:42:33.995Z,101138.47
2022-08-21T08:45:17.996Z,101132.03
2022-08-21T08:47:50.034Z,101129.38
2022-08-21T08:50:27.385Z,101121.59
2022-08-21T08:53:01.099Z,101127.91
2022-08-21T08:55:36.065Z,101121.28
2022-08-21T08:58:03.590Z,101121.22
2022-08-21T09:00:31.778Z,101129.19
2022-08-21T09:03:01.054Z,101122.84
2022-08-21T09:05:43.480Z,101127.63
2022-08-21T09:08:25.274Z,101115.31
2022-08-21T09:11:03.748Z,101120.38
2022-08-21T09:13:54.988Z,101122.41
2022-08-21T09:16:41.514Z,101117.78
2022-08-21T09:19:24.807Z,101114.75
2022-08-21T09:22:08.242Z,101118.63
2022-08-21T09:24:58.010Z,101114.63
2022-08-21T09:27:24.754Z,101111.28
2022-08-21T09:29:55.094Z,101115.09
2022-08-21T09:32:36.919Z,101108.38
2022-08-21T09:35:20.758Z,101104.66
2022-08-21T09:37:53.730Z,101100.53
2022-08-21T09:40:44.421Z,101102.53
2022-08-21T09:43:19.581Z,101100.66
2022-08-21T09:45:47.766Z,101092.78
2022-08-21T09:48:26.333Z,101091.72
2022-08-21T09:51:05.407Z,101091.53
2022-08-21T09:53:35.633Z,101094.88
2022-08-21T09:56:35.399Z,101090.81
2022-08-21T09:59:01.772Z,101086.53
2022-08-21T10:01:28.229Z,101084.25
2022-08-21T10:04:35.179Z,101079.34
2022-08-21T10:07:15.438Z,101080.53
2022-08-21T10:09:42.660Z,101084.31
2022-08-21T10:12:26.223Z,101082.28
2022-08-21T10:14:59.762Z,101087.22
2022-08-21T10:17:45.887Z,101077.53
2022-08-21T10:20:23.117Z,101082.63
2022-08-21T10:23:07.936Z,101083.59
2022-08-21T10:25:56.956Z,101089.47
2022-08-21T10:28:36.320Z,101084.91
2022-08-21T10:31:36.424Z,101085.28
2022-08-21T10:34:25.049Z,101072.31
2022-08-21T10:37:21.912Z,101079.00
2022-08-21T10:40:22.097Z,101079.19
2022-08-21T10:42:54.529Z,101087.72
2022-08-21T10:45:50.535Z,101074.00
2022-08-21T10:48:42.733Z,101076.88
2022-08-21T10:51:34.684Z,101082.78
2022-08-21T10:54:24.499Z,101084.59
2022-08-21T10:56:59.996Z,101083.28
2022-08-21T10:59:32.481Z,101073.50
2022-08-21T11:02:23.100Z,101083.44
2022-08-21T11:05:23.555Z,101079.16
2022-08-21T11:07:55.778Z,101074.56
2022-08-21T11:10:28.551Z,101077.22
2022-08-21T11:13:23.085Z,101079.47
2022-08-21T11:16:06.253Z,101080.38
2022-08-21T11:18:38.483Z,101092.13
2022-08-21T11:21:20.455Z,101087.97
2022-08-21T11:23:54.189Z,101086.47
2022-08-21T11:26:31.203Z,101078.72
2022-08-21T11:29:12.790Z,101086.53
2022-08-21T11:31:50.060Z,101081.41
2022-08-21T11:34:31.416Z,101076.19
2022-08-21T11:37:16.628Z,101084.66
2022-08-21T11:39:52.962Z,101093.25
2022-08-21T11:42:57.050Z,101091.03
2022-08-21T11:45:36.361Z,101090.47
2022-08-21T11:48:21.754Z,101092.91
2022-08-21T11:50:51.178Z,101087.03
2022-08-21T11:53:25.351Z,101093.66
2022-08-21T11:56:01.242Z,101085.09
2022-08-21T11:58:42.095Z,101088.06
2022-08-21T12:01:15.654Z,101086.06
2022-08-21T12:03:54.371Z,101093.97
2022-08-21T12:06:33.898Z,101090.13
2022-08-21T12:09:06.714Z,101088.31
2022-08-21T12:11:33.406Z,101082.69
2022-08-21T12:14:01.715Z,101074.91
2022-08-21T12:16:41.798Z,101072.03
2022-08-21T12:19:21.695Z,101077.22
2022-08-21T12:22:12.970Z,101082.59
2022-08-21T12:24:51.914Z,101081.81
2022-08-21T12:27:20.777Z,101081.63
2022-08-21T12:29:50.513Z,101077.06
2022-08-21T12:32:16.789Z,101075.41
2022-08-21T12:34:49.158Z,101082.13
2022-08-21T12:37:15.473Z,101072.72
2022-08-21T12:39:45.487Z,101084.44
2022-08-21T12:42:19.452Z,101087.66
2022-08-21T12:44:54.634Z,101077.72
2022-08-21T12:47:51.536Z,101076.78
2022-08-21T12:50:45.353Z,101077.13
2022-08-21T12:53:36.885Z,101074.72
2022-08-21T12:56:05.003Z,101070.41
2022-08-21T12:58:32.714Z,101070.66
2022-08-21T13:01:25.216Z,101074.69
2022-08-21T13:03:55.484Z,101077.72
2022-08-21T13:06:38.940Z,101072.31
2022-08-21T13:09:09.223Z,101075.84
2022-08-21T13:11:36.154Z,101067.22
2022-08-21T13:14:05.244Z,101070.56
2022-08-21T13:16:32.773Z,101056.53
2022-08-21T13:19:06.280Z,101063.13
2022-08-21T13:21:41.600Z,101061.13
2022-08-21T13:24:38.664Z,101057.00
2022-08-21T13:26:58.287Z,101052.50
2022-08-21T13:29:30.120Z,101061.25
2022-08-21T13:32:02.828Z,101061.91
2022-08-21T13:34:37.675Z,101053.59
2022-08-21T13:37:08.373Z,101045.44
2022-08-21T13:39:35.157Z,101057.56
2022-08-21T13:42:07.095Z,101049.63
2022-08-21T13:44:45.570Z,101055.91
2022-08-21T13:47:14.844Z,101059.44
2022-08-21T13:49:46.205Z,101058.50
2022-08-21T13:52:22.339Z,101051.41
2022-08-21T13:54:59.195Z,101056.31
2022-08-21T13:57:32.504Z,101059.88
2022-08-21T14:00:13.136Z,101058.09
2022-08-21T14:02:42.944Z,101059.44
2022-08-21T14:05:21.931Z,101065.06
2022-08-21T14:07:51.103Z,101063.38
2022-08-21T14:10:23.325Z,101050.41
2022-08-21T14:13:01.951Z,101049.25
2022-08-21T14:15:31.276Z,101062.78
2022-08-21T14:18:15.192Z,101060.22
2022-08-21T14:20:41.832Z,101063.53
2022-08-21T14:23:08.373Z,101067.66
2022-08-21T14:25:44.276Z,101060.06
2022-08-21T14:28:50.135Z,101056.09
2022-08-21T14:31:21.959Z,101060.69
2022-08-21T14:33:48.971Z,101055.06
2022-08-21T14:36:15.459Z,101058.50
2022-08-21T14:38:42.140Z,101056.66
2022-08-21T14:41:20.710Z,101052.84
2022-08-21T14:43:47.970Z,101047.31
2022-08-21T14:46:28.989Z,101054.84
2022-08-21T14:48:55.530Z,101054.19
2022-08-21T14:51:22.139Z,101052.75
2022-08-21T14:53:48.987Z,101057.06
2022-08-21T14:56:16.699Z,101058.34
2022-08-21T14:58:46.935Z,101061.66
2022-08-21T15:01:15.329Z,101054.09
2022-08-21T15:03:41.847Z,101058.72
2022-08-21T15:06:09.476Z,101064.25
2022-08-21T15:08:36.578Z,101063.69
2022-08-21T15:11:14.616Z,101062.72
2022-08-21T15:13:44.191Z,101061.97
2022-08-21T15:16:12.648Z,101063.91
2022-08-21T15:18:39.383Z,101062.75
2022-08-21T15:21:06.281Z,101060.63
2022-08-21T15:23:32.852Z,101051.19
2022-08-21T15:25:59.783Z,101061.28
2022-08-21T15:28:27.503Z,101057.84
2022-08-21T15:31:00.032Z,101051.38
2022-08-21T15:33:26.427Z,101065.16
2022-08-21T15:35:52.819Z,101053.41
2022-08-21T15:38:19.200Z,101063.19
2022-08-21T15:40:52.031Z,101060.72
2022-08-21T15:43:30.666Z,101060.09
2022-08-21T15:45:59.524Z,101062.97
2022-08-21T15:48:26.040Z,101063.06
2022-08-21T15:50:52.405Z,101054.59
2022-08-21T15:53:19.017Z,101050.16
2022-08-21T15:55:45.464Z,101052.63
2022-08-21T15:58:17.728Z,101052.53
2022-08-21T16:00:45.436Z,101059.78
2022-08-21T16:03:17.416Z,101054.22
2022-08-21T16:05:49.187Z,101054.44
2022-08-21T16:08:15.914Z,101052.31
2022-08-21T16:10:42.420Z,101053.25
2022-08-21T16:13:17.343Z,101056.78
2022-08-21T16:15:43.826Z,101057.88
2022-08-21T16:18:10.999Z,101056.97
2022-08-21T16:20:37.413Z,101048.78
2022-08-21T16:23:03.919Z,101050.13
2022-08-21T16:25:30.422Z,101052.69
2022-08-21T16:28:02.341Z,101060.75
2022-08-21T16:30:30.861Z,101050.47
2022-08-21T16:32:57.976Z,101047.50
2022-08-21T16:35:25.054Z,101045.44
2022-08-21T16:37:53.327Z,101051.84
2022-08-21T16:40:20.632Z,101046.06
2022-08-21T16:42:48.583Z,101052.13
2022-08-21T16:45:18.092Z,101055.44
2022-08-21T16:47:45.052Z,101050.88
2022-08-21T16:50:22.247Z,101053.34
2022-08-21T16:52:48.946Z,101055.03
2022-08-21T16:55:15.916Z,101049.28
2022-08-21T16:57:42.653Z,101052.22
2022-08-21T17:00:13.653Z,101042.00
2022-08-21T17:02:44.896Z,101045.66
2022-08-21T17:05:13.998Z,101047.19
2022-08-21T17:07:42.033Z,101045.28
2022-08-21T17:10:10.412Z,101048.06
2022-08-21T17:12:36.881Z,101048.50
2022-08-21T17:15:08.303Z,101045.13
2022-08-21T17:17:35.560Z,101045.66
2022-08-21T17:20:02.067Z,101053.19
2022-08-21T17:22:28.562Z,101050.72
2022-08-21T17:24:55.000Z,101053.88
2022-08-21T17:27:26.793Z,101050.94
2022-08-21T17:29:54.535Z,101063.19
2022-08-21T17:32:21.611Z,101064.47
2022-08-21T17:34:48.091Z,101061.81
2022-08-21T17:37:15.101Z,101057.53
2022-08-21T17:39:41.730Z,101058.53
2022-08-21T17:42:11.428Z,101068.50
2022-08-21T17:44:39.806Z,101072.50
2022-08-21T17:47:07.268Z,101073.03
2022-08-21T17:49:33.894Z,101075.44
2022-08-21T17:52:00.374Z,101074.31
2022-08-21T17:54:27.512Z,101086.72
2022-08-21T17:56:55.646Z,101083.94
2022-08-21T17:59:23.710Z,101086.31
2022-08-21T18:01:50.676Z,101091.44
2022-08-21T18:04:17.272Z,101097.47
2022-08-21T18:06:44.748Z,101098.84
2022-08-21T18:09:12.676Z,101098.00
2022-08-21T18:11:41.451Z,101101.25
2022-08-21T18:14:08.480Z,101102.13
2022-08-21T18:16:37.340Z,101108.78
2022-08-21T18:19:09.403Z,101104.63
2022-08-21T18:21:37.183Z,101115.81
2022-08-21T18:24:04.208Z,101114.63
2022-08-21T18:26:34.708Z,101106.50
2022-08-21T18:29:02.263Z,101122.13
2022-08-21T18:31:31.954Z,101119.19
2022-08-21T18:34:00.609Z,101122.47
2022-08-21T18:36:29.523Z,101121.16
2022-08-21T18:39:08.622Z,101121.50
2022-08-21T18:41:40.734Z,101130.47
2022-08-21T18:44:07.264Z,101129.09
2022-08-21T18:46:33.603Z,101129.66
2022-08-21T18:49:00.139Z,101128.97
2022-08-21T18:51:26.573Z,101136.94
2022-08-21T18:53:56.159Z,101138.09
2022-08-21T18:56:22.576Z,101144.59
2022-08-21T18:58:50.712Z,101141.03
2022-08-21T19:01:17.755Z,101144.53
2022-08-21T19:03:44.298Z,101143.22
2022-08-21T19:06:11.892Z,101147.34
2022-08-21T19:08:38.534Z,101152.69
2022-08-21T19:11:06.413Z,101153.19
2022-08-21T19:13:33.698Z,101149.63
2022-08-21T19:16:03.804Z,101153.28
2022-08-21T19:18:33.323Z,101159.22
2022-08-21T19:21:01.680Z,101153.59
2022-08-21T19:23:29.297Z,101156.88
2022-08-21T19:26:00.799Z,101159.34
2022-08-21T19:28:34.446Z,101152.09
2022-08-21T19:31:10.640Z,101160.38
2022-08-21T19:33:40.828Z,101160.75
2022-08-21T19:36:12.031Z,101156.66
2022-08-21T19:38:39.041Z,101157.19
2022-08-21T19:41:09.340Z,101157.25
2022-08-21T19:43:42.480Z,101156.38
2022-08-21T19:46:09.048Z,101168.38
2022-08-21T19:48:36.923Z,101160.00
2022-08-21T19:51:04.177Z,101170.22
2022-08-21T19:53:30.526Z,101154.34
2022-08-21T19:55:56.929Z,101173.28
2022-08-21T19:58:34.862Z,101171.91
2022-08-21T20:01:05.204Z,101180.09
2022-08-21T20:03:43.934Z,101181.59
2022-08-21T20:06:10.635Z,101180.00
2022-08-21T20:08:37.090Z,101187.69
2022-08-21T20:11:06.016Z,101191.91
2022-08-21T20:13:33.813Z,101186.34
2022-08-21T20:16:02.526Z,101191.50
2022-08-21T20:18:31.202Z,101190.78
2022-08-21T20:20:57.762Z,101192.03
2022-08-21T20:23:30.441Z,101193.25
2022-08-21T20:25:58.851Z,101192.03
2022-08-21T20:28:27.262Z,101196.25
2022-08-21T20:30:55.555Z,101194.28
2022-08-21T20:33:22.131Z,101198.69
2022-08-21T20:35:49.968Z,101201.94
2022-08-21T20:38:16.981Z,101200.94
2022-08-21T20:40:44.191Z,101193.69
2022-08-21T20:43:12.794Z,101198.84
2022-08-21T20:45:40.553Z,101197.31
2022-08-21T20:48:49.164Z,101200.94
2022-08-21T20:51:28.141Z,101201.38
2022-08-21T20:54:22.913Z,101200.75
2022-08-21T20:57:16.672Z,101202.84
2022-08-21T20:59:52.709Z,101203.38
2022-08-21T21:02:35.974Z,101198.22
2022-08-21T21:05:06.980Z,101204.38
2022-08-21T21:07:47.666Z,101208.47
2022-08-21T21:10:23.793Z,101208.91
2022-08-21T21:12:55.210Z,101202.78
2022-08-21T21:15:29.294Z,101205.66
2022-08-21T21:18:13.088Z,101206.72
2022-08-21T21:21:32.874Z,101207.50
2022-08-21T21:24:07.103Z,101204.25
2022-08-21T21:26:44.597Z,101215.88
2022-08-21T21:29:34.837Z,101212.38
2022-08-21T21:32:04.267Z,101208.84
2022-08-21T21:34:36.558Z,101214.13
2022-08-21T21:37:07.134Z,101206.06
2022-08-21T21:39:46.275Z,101217.53
2022-08-21T21:42:31.446Z,101211.44
2022-08-21T21:45:23.533Z,101218.69
2022-08-21T21:48:10.011Z,101213.53
2022-08-21T21:51:01.118Z,101216.41
2022-08-21T21:53:45.430Z,101220.09
2022-08-21T21:56:40.411Z,101228.25
2022-08-21T21:59:25.442Z,101228.25
2022-08-21T22:02:27.290Z,101235.31
2022-08-21T22:04:59.789Z,101231.78
2022-08-21T22:08:02.404Z,101240.44
2022-08-21T22:10:46.002Z,101238.72
2022-08-21T22:13:26.815Z,101244.47
2022-08-21T22:15:54.397Z,101245.16
2022-08-21T22:18:26.332Z,101253.41
2022-08-21T22:21:00.146Z,101250.16
2022-08-21T22:23:31.845Z,101241.69
2022-08-21T22:26:08.243Z,101245.56
2022-08-21T22:28:41.695Z,101242.63
2022-08-21T22:31:21.548Z,101244.28
2022-08-21T22:34:06.308Z,101245.06
2022-08-21T22:36:36.948Z,101246.44
2022-08-21T22:39:14.119Z,101242.56
2022-08-21T22:41:44.118Z,101239.84
2022-08-21T22:44:53.391Z,101236.94
2022-08-21T22:47:24.279Z,101242.38
2022-08-21T22:49:53.964Z,101237.19
2022-08-21T22:52:26.062Z,101240.66
2022-08-21T22:54:57.426Z,101242.09
2022-08-21T22:57:30.472Z,101244.09
2022-08-21T23:00:10.826Z,101247.72
2022-08-21T23:02:49.666Z,101245.09
2022-08-21T23:05:20.645Z,101244.16
2022-08-21T23:07:50.103Z,101245.09
2022-08-21T23:10:26.367Z,101251.94
2022-08-21T23:13:09.196Z,101250.34
2022-08-21T23:16:05.596Z,101251.50
2022-08-21T23:18:57.965Z,101248.97
2022-08-21T23:21:46.288Z,101249.81
2022-08-21T23:24:50.004Z,101249.13
2022-08-21T23:27:35.968Z,101244.50
2022-08-21T23:30:02.475Z,101246.09
2022-08-21T23:32:57.284Z,101247.06
2022-08-21T23:36:04.447Z,101243.97
2022-08-21T23:38:55.583Z,101243.34
2022-08-21T23:41:40.606Z,101246.56
2022-08-21T23:44:06.931Z,101251.16
2022-08-21T23:47:10.286Z,101241.81
2022-08-21T23:49:47.600Z,101240.34
2022-08-21T23:55:31.213Z,101238.81
2022-08-21T23:58:16.002Z,101241.75
